Time;durP1;ratioP1;P1;durP2;ratioP2;P2;SDS_P1;SDS_P2;PMS_P1;PMS_P2;Temp;Humidity;BMP_temperature;BMP_pressure;BME280_temperature;BME280_humidity;BME280_pressure;Samples;Min_cycle;Max_cycle;Signal;HPM_P1;HPM_P2
2021/03/13 00:00:09;;;;;;;6.40;1.20;;;6.30;99.90;;;;;;5013306;28;20080;-62
2021/03/13 00:02:35;;;;;;;6.95;1.13;;;6.30;99.90;;;;;;5003574;28;20096;-60
2021/03/13 00:05:01;;;;;;;5.78;1.42;;;6.30;99.90;;;;;;5006548;28;20062;-61
2021/03/13 00:07:26;;;;;;;3.75;1.13;;;6.30;99.90;;;;;;5019058;28;20041;-62
2021/03/13 00:09:52;;;;;;;8.40;2.00;;;6.30;99.90;;;;;;5012663;28;20025;-62
2021/03/13 00:12:17;;;;;;;8.35;1.50;;;6.30;99.90;;;;;;5009843;28;20565;-59
2021/03/13 00:14:43;;;;;;;3.15;1.05;;;6.30;99.90;;;;;;5013460;28;20036;-59
2021/03/13 00:17:09;;;;;;;5.70;1.80;;;6.30;99.90;;;;;;5009575;28;20057;-61
2021/03/13 00:19:34;;;;;;;8.57;2.00;;;6.30;99.90;;;;;;5011710;28;20030;-62
2021/03/13 00:22:00;;;;;;;5.63;0.85;;;6.30;99.90;;;;;;5010129;28;20030;-61
2021/03/13 00:24:25;;;;;;;6.57;0.95;;;6.10;99.90;;;;;;5012271;28;20034;-60
2021/03/13 00:26:51;;;;;;;5.38;1.20;;;6.00;99.90;;;;;;5023511;28;20025;-61
2021/03/13 00:29:17;;;;;;;5.97;1.67;;;5.90;99.90;;;;;;5012803;28;20586;-61
2021/03/13 00:31:42;;;;;;;4.60;0.85;;;5.80;99.90;;;;;;5007158;28;20664;-62
2021/03/13 00:34:08;;;;;;;5.03;0.98;;;5.70;99.90;;;;;;5009147;28;20040;-62
2021/03/13 00:36:33;;;;;;;6.45;1.52;;;5.60;99.90;;;;;;5030907;28;20037;-62
2021/03/13 00:38:59;;;;;;;9.75;1.27;;;5.60;99.90;;;;;;5011855;28;20046;-61
2021/03/13 00:41:24;;;;;;;5.88;1.35;;;5.60;99.90;;;;;;5013445;28;20563;-61
2021/03/13 00:43:50;;;;;;;7.38;1.58;;;5.50;99.90;;;;;;5022085;28;20025;-60
2021/03/13 00:46:15;;;;;;;10.95;1.63;;;5.50;99.90;;;;;;5001976;28;20038;-60
2021/03/13 00:48:41;;;;;;;5.03;1.08;;;5.50;99.90;;;;;;4995629;28;20030;-61
2021/03/13 00:51:06;;;;;;;14.20;2.35;;;5.50;99.90;;;;;;4995615;28;20025;-61
2021/03/13 00:53:32;;;;;;;10.38;1.50;;;5.50;99.90;;;;;;4998500;28;20054;-61
2021/03/13 00:55:57;;;;;;;11.82;1.65;;;5.50;99.90;;;;;;5009620;28;22151;-60
2021/03/13 00:58:23;;;;;;;8.40;1.70;;;5.50;99.90;;;;;;5007201;28;20088;-59
2021/03/13 01:00:49;;;;;;;9.52;2.05;;;5.50;99.90;;;;;;5002126;28;20511;-59
2021/03/13 01:03:14;;;;;;;11.90;2.00;;;5.50;99.90;;;;;;4981498;28;20070;-62
2021/03/13 01:05:40;;;;;;;11.63;1.73;;;5.50;99.90;;;;;;4995509;28;20088;-58
2021/03/13 01:08:07;;;;;;;7.20;1.48;;;5.50;99.90;;;;;;5008070;28;20774;-60
2021/03/13 01:10:35;;;;;;;11.77;1.80;;;5.50;99.90;;;;;;5017815;28;20092;-60
2021/03/13 01:13:02;;;;;;;9.77;1.58;;;5.50;99.90;;;;;;5013620;28;20029;-60
2021/03/13 01:15:29;;;;;;;6.85;1.65;;;5.60;99.90;;;;;;5013379;28;20034;-60
2021/03/13 01:17:55;;;;;;;10.30;3.10;;;5.60;99.90;;;;;;4997959;28;20099;-60
2021/03/13 01:20:22;;;;;;;8.95;1.75;;;5.60;99.90;;;;;;4993478;28;20049;-59
2021/03/13 01:22:48;;;;;;;9.45;1.85;;;5.60;99.90;;;;;;5004365;28;20451;-60
2021/03/13 01:25:15;;;;;;;5.28;1.58;;;5.60;99.90;;;;;;5016068;28;20061;-61
2021/03/13 01:27:41;;;;;;;9.18;1.92;;;5.70;99.90;;;;;;5017247;28;20060;-61
2021/03/13 01:30:13;;;;;;;16.55;2.08;;;5.70;99.90;;;;;;5006128;28;20081;-61
2021/03/13 01:32:38;;;;;;;14.15;2.03;;;5.70;99.90;;;;;;4995528;28;20120;-61
2021/03/13 01:35:05;;;;;;;6.57;2.08;;;5.70;99.90;;;;;;4998892;28;20113;-61
2021/03/13 01:37:31;;;;;;;8.23;1.98;;;5.70;99.90;;;;;;5002526;28;20061;-60
2021/03/13 01:39:56;;;;;;;7.82;1.98;;;5.70;99.90;;;;;;5011270;28;20025;-61
2021/03/13 01:42:22;;;;;;;8.98;1.88;;;5.70;99.90;;;;;;5010259;28;20483;-61
2021/03/13 01:44:47;;;;;;;6.88;2.20;;;5.70;99.90;;;;;;5005611;28;20106;-61
2021/03/13 01:47:22;;;;;;;11.25;2.20;;;5.80;99.90;;;;;;4993218;28;20026;-62
2021/03/13 01:49:50;;;;;;;8.63;2.30;;;5.70;99.90;;;;;;4996668;28;20065;-62
2021/03/13 01:52:16;;;;;;;4.65;1.88;;;5.70;99.90;;;;;;4982512;28;20034;-61
2021/03/13 01:54:42;;;;;;;11.80;3.55;;;5.80;99.90;;;;;;5007984;28;20021;-61
2021/03/13 01:57:08;;;;;;;6.55;2.17;;;5.80;99.90;;;;;;5011821;28;20030;-60
2021/03/13 01:59:34;;;;;;;4.97;2.30;;;5.80;99.90;;;;;;5008079;28;20034;-61
2021/03/13 02:01:59;;;;;;;5.60;2.00;;;5.80;99.90;;;;;;4971412;28;20037;-62
2021/03/13 02:04:25;;;;;;;5.65;2.03;;;5.80;99.90;;;;;;4990571;28;20050;-60
2021/03/13 02:07:05;;;;;;;6.95;1.70;;;5.90;99.90;;;;;;4997335;28;20076;-60
2021/03/13 02:09:44;;;;;;;5.15;1.80;;;5.90;99.90;;;;;;5011276;28;20045;-60
2021/03/13 02:12:27;;;;;;;6.85;2.08;;;5.90;99.90;;;;;;5017415;28;20032;-59
2021/03/13 02:15:03;;;;;;;4.82;1.70;;;5.90;99.90;;;;;;5002256;28;20033;-60
2021/03/13 02:17:39;;;;;;;4.32;1.60;;;5.90;99.90;;;;;;4995725;28;20068;-60
2021/03/13 02:20:32;;;;;;;6.13;1.70;;;5.90;99.90;;;;;;4991493;28;20101;-62
2021/03/13 02:22:59;;;;;;;3.15;1.70;;;5.90;99.90;;;;;;5013439;28;20120;-61
2021/03/13 02:25:43;;;;;;;4.47;1.60;;;5.90;99.90;;;;;;5023286;28;20490;-60
2021/03/13 02:28:20;;;;;;;3.78;1.20;;;5.90;99.90;;;;;;5011244;28;20030;-62
2021/03/13 02:30:46;;;;;;;5.05;1.25;;;5.90;99.90;;;;;;5009049;28;20669;-60
2021/03/13 02:33:18;;;;;;;2.60;0.98;;;5.90;99.90;;;;;;4991852;28;20075;-60
2021/03/13 02:35:46;;;;;;;3.25;1.25;;;5.90;99.90;;;;;;4996776;28;20548;-59
2021/03/13 02:38:25;;;;;;;4.25;1.33;;;5.90;99.90;;;;;;5011447;28;20057;-60
2021/03/13 02:40:52;;;;;;;2.95;1.20;;;5.90;99.90;;;;;;5013216;28;20021;-61
2021/03/13 02:43:21;;;;;;;2.70;0.95;;;5.90;99.90;;;;;;5015753;28;20441;-61
2021/03/13 02:45:50;;;;;;;3.58;1.05;;;5.90;99.90;;;;;;5007066;28;20499;-61
2021/03/13 02:48:17;;;;;;;5.53;2.15;;;5.90;99.90;;;;;;4996642;28;20030;-62
2021/03/13 02:50:44;;;;;;;1.30;0.90;;;5.90;99.90;;;;;;5002273;28;20743;-62
2021/03/13 02:53:11;;;;;;;4.57;0.93;;;5.90;99.90;;;;;;4996248;28;20049;-61
2021/03/13 02:55:37;;;;;;;2.33;0.70;;;5.90;99.90;;;;;;5014299;28;20037;-61
2021/03/13 02:58:04;;;;;;;2.08;0.73;;;5.90;99.90;;;;;;5019743;28;20554;-58
2021/03/13 03:00:34;;;;;;;2.78;0.88;;;5.90;99.90;;;;;;5008742;28;20125;-60
2021/03/13 03:03:00;;;;;;;5.18;0.80;;;5.90;99.90;;;;;;4996705;28;20839;-61
2021/03/13 03:05:27;;;;;;;1.08;0.60;;;5.90;99.90;;;;;;4993522;28;20034;-61
2021/03/13 03:07:56;;;;;;;5.78;0.80;;;5.90;99.90;;;;;;5002637;28;20443;-62
2021/03/13 03:10:29;;;;;;;4.63;1.17;;;6.00;99.90;;;;;;5012451;28;20026;-61
2021/03/13 03:12:55;;;;;;;3.28;0.70;;;6.00;99.90;;;;;;4982727;28;20049;-61
2021/03/13 03:15:24;;;;;;;0.85;0.63;;;6.00;99.90;;;;;;5000325;28;20030;-61
2021/03/13 03:17:52;;;;;;;1.45;0.57;;;6.00;99.90;;;;;;4990679;28;20030;-61
2021/03/13 03:20:19;;;;;;;3.40;0.73;;;6.10;99.90;;;;;;4994339;28;20137;-60
2021/03/13 03:22:45;;;;;;;5.53;1.10;;;6.00;99.90;;;;;;4997959;28;20652;-62
2021/03/13 03:25:11;;;;;;;3.15;0.82;;;6.00;99.90;;;;;;5007091;28;20114;-62
2021/03/13 03:27:49;;;;;;;3.08;0.70;;;6.10;99.90;;;;;;5003071;28;20095;-62
2021/03/13 03:30:17;;;;;;;2.42;0.70;;;6.10;99.90;;;;;;5004586;28;20566;-61
2021/03/13 03:32:44;;;;;;;1.35;0.88;;;6.10;99.90;;;;;;4980862;28;20017;-61
2021/03/13 03:35:10;;;;;;;1.70;0.98;;;6.10;99.90;;;;;;4996284;28;20049;-61
2021/03/13 03:37:36;;;;;;;2.42;0.90;;;6.10;99.90;;;;;;4996950;28;20034;-60
2021/03/13 03:40:03;;;;;;;1.77;0.70;;;6.10;99.90;;;;;;5015526;28;20048;-61
2021/03/13 03:42:30;;;;;;;1.55;1.00;;;6.10;99.90;;;;;;4994190;28;20034;-63
2021/03/13 03:44:57;;;;;;;2.42;0.73;;;6.10;99.90;;;;;;4992794;28;20109;-61
2021/03/13 03:47:23;;;;;;;2.35;0.60;;;6.10;99.90;;;;;;4996546;28;20084;-61
2021/03/13 03:49:49;;;;;;;2.95;0.68;;;6.10;99.90;;;;;;4991781;28;20033;-62
2021/03/13 03:52:16;;;;;;;5.72;0.88;;;6.10;99.90;;;;;;4985120;28;20033;-62
2021/03/13 03:54:42;;;;;;;2.45;0.50;;;6.20;99.90;;;;;;5004276;28;20037;-61
2021/03/13 03:57:09;;;;;;;1.00;0.55;;;6.10;99.90;;;;;;5010478;28;20156;-61
2021/03/13 03:59:38;;;;;;;2.03;0.75;;;6.20;99.90;;;;;;5009326;28;20025;-59
2021/03/13 04:02:04;;;;;;;2.65;0.50;;;6.20;99.90;;;;;;4983135;28;20022;-59
2021/03/13 04:04:31;;;;;;;0.60;0.35;;;6.20;99.90;;;;;;4988628;28;20084;-56
2021/03/13 04:06:58;;;;;;;1.90;0.50;;;6.20;99.90;;;;;;4987640;28;20029;-60
2021/03/13 04:09:26;;;;;;;5.13;0.65;;;6.20;99.90;;;;;;5009367;28;20199;-60
2021/03/13 04:11:53;;;;;;;1.23;0.30;;;6.20;99.90;;;;;;4986861;28;20121;-61
2021/03/13 04:14:19;;;;;;;0.95;0.40;;;6.20;99.90;;;;;;4999773;28;20443;-60
2021/03/13 04:16:46;;;;;;;3.33;1.00;;;6.20;99.90;;;;;;4984286;28;20030;-60
2021/03/13 04:19:12;;;;;;;1.23;0.32;;;6.20;99.90;;;;;;4992873;28;20124;-60
2021/03/13 04:21:38;;;;;;;1.02;0.30;;;6.30;99.90;;;;;;4985094;28;20041;-59
2021/03/13 04:24:05;;;;;;;3.45;0.60;;;6.20;99.90;;;;;;5004591;28;20026;-61
2021/03/13 04:26:31;;;;;;;0.77;0.52;;;6.30;99.90;;;;;;5017862;28;20523;-60
2021/03/13 04:28:57;;;;;;;0.60;0.30;;;6.30;99.90;;;;;;5013835;28;21237;-60
2021/03/13 04:31:28;;;;;;;2.20;0.30;;;6.30;99.90;;;;;;5000885;28;20037;-59
2021/03/13 04:33:56;;;;;;;0.95;0.30;;;6.30;99.90;;;;;;4994270;28;20503;-60
2021/03/13 04:36:22;;;;;;;3.30;0.40;;;6.30;99.90;;;;;;5001140;28;20492;-60
2021/03/13 04:38:49;;;;;;;0.80;0.40;;;6.30;99.90;;;;;;5005247;28;20038;-59
2021/03/13 04:41:15;;;;;;;1.88;0.30;;;6.30;99.90;;;;;;5007965;28;20152;-57
2021/03/13 04:43:41;;;;;;;2.67;0.60;;;6.30;99.90;;;;;;5024237;28;20029;-59
2021/03/13 04:46:07;;;;;;;0.30;0.30;;;6.30;99.90;;;;;;5002906;28;20677;-60
2021/03/13 04:48:34;;;;;;;2.25;0.40;;;6.30;99.90;;;;;;4996433;28;20026;-60
2021/03/13 04:51:02;;;;;;;0.77;0.50;;;6.30;99.90;;;;;;5001197;28;20029;-59
2021/03/13 04:53:29;;;;;;;1.08;0.35;;;6.30;99.90;;;;;;4983142;28;20041;-60
2021/03/13 04:55:54;;;;;;;1.35;0.40;;;6.40;99.90;;;;;;5014275;28;20380;-61
2021/03/13 04:58:20;;;;;;;1.90;0.38;;;6.40;99.90;;;;;;5018639;28;20159;-59
2021/03/13 05:00:46;;;;;;;1.45;0.30;;;6.40;99.90;;;;;;5011267;28;20577;-59
2021/03/13 05:03:13;;;;;;;1.55;0.50;;;6.50;99.90;;;;;;4996729;28;20025;-59
2021/03/13 05:05:38;;;;;;;2.85;0.50;;;6.50;99.90;;;;;;4996117;28;20044;-60
2021/03/13 05:08:04;;;;;;;1.25;0.60;;;6.50;99.90;;;;;;5010411;28;20030;-57
2021/03/13 05:10:30;;;;;;;1.85;0.60;;;6.60;99.90;;;;;;5013868;28;20030;-59
2021/03/13 05:12:55;;;;;;;2.05;0.38;;;6.60;99.90;;;;;;4985912;28;20050;-59
2021/03/13 05:15:22;;;;;;;1.38;0.30;;;6.60;99.90;;;;;;5004873;28;20161;-60
2021/03/13 05:17:48;;;;;;;0.88;0.40;;;6.70;99.90;;;;;;4991807;28;20307;-60
2021/03/13 05:20:14;;;;;;;1.95;0.43;;;6.70;99.90;;;;;;5011054;28;20034;-60
2021/03/13 05:22:40;;;;;;;2.42;0.52;;;6.80;99.90;;;;;;5002704;28;20037;-62
2021/03/13 05:25:07;;;;;;;3.88;0.50;;;6.80;99.90;;;;;;5005068;28;20080;-62
2021/03/13 05:27:33;;;;;;;2.00;0.43;;;6.80;99.90;;;;;;5012513;28;20794;-61
2021/03/13 05:29:59;;;;;;;1.60;0.40;;;6.80;99.90;;;;;;5004023;28;20072;-58
2021/03/13 05:32:26;;;;;;;1.45;0.43;;;6.80;99.90;;;;;;4992855;28;20022;-59
2021/03/13 05:34:52;;;;;;;2.13;0.43;;;6.80;99.90;;;;;;4982528;28;20030;-59
2021/03/13 05:37:18;;;;;;;0.77;0.38;;;6.90;99.90;;;;;;5001796;28;20030;-62
2021/03/13 05:39:43;;;;;;;1.30;0.50;;;6.90;99.90;;;;;;5013988;28;20161;-62
2021/03/13 05:42:10;;;;;;;2.28;0.70;;;6.90;99.90;;;;;;5010614;28;20065;-62
2021/03/13 05:44:37;;;;;;;1.23;0.40;;;6.90;99.90;;;;;;5012231;28;20113;-61
2021/03/13 05:47:03;;;;;;;3.13;0.57;;;6.90;99.90;;;;;;4986815;28;20791;-61
2021/03/13 05:49:31;;;;;;;3.88;0.40;;;6.90;99.90;;;;;;4993178;28;20117;-62
2021/03/13 05:51:59;;;;;;;4.43;0.75;;;7.00;99.90;;;;;;4997562;28;20483;-61
2021/03/13 05:54:24;;;;;;;4.80;0.57;;;7.00;99.90;;;;;;5000959;28;20034;-61
2021/03/13 05:56:50;;;;;;;4.75;0.50;;;7.00;99.90;;;;;;5004604;28;21795;-61
2021/03/13 05:59:16;;;;;;;2.53;0.30;;;7.10;99.90;;;;;;5002117;28;20034;-62
2021/03/13 06:01:43;;;;;;;1.65;0.52;;;7.10;99.90;;;;;;5000386;28;20075;-62
2021/03/13 06:04:08;;;;;;;1.70;0.55;;;7.10;99.90;;;;;;4992902;28;20061;-60
2021/03/13 06:06:38;;;;;;;1.27;0.55;;;7.10;99.90;;;;;;5001896;28;20492;-58
2021/03/13 06:09:05;;;;;;;5.00;0.93;;;7.20;99.90;;;;;;4996856;28;20480;-60
2021/03/13 06:11:31;;;;;;;2.08;0.70;;;7.20;99.90;;;;;;5009662;28;20092;-59
2021/03/13 06:13:57;;;;;;;3.92;1.45;;;7.20;99.90;;;;;;4985269;28;20069;-58
2021/03/13 06:16:23;;;;;;;3.58;1.20;;;7.30;99.90;;;;;;5007822;28;20103;-59
2021/03/13 06:18:48;;;;;;;36.50;17.27;;;7.30;99.90;;;;;;4991983;28;20038;-59
2021/03/13 06:21:29;;;;;;;85.03;41.13;;;7.30;99.90;;;;;;4998736;28;20038;-60
2021/03/13 06:23:57;;;;;;;16.95;10.52;;;7.40;99.90;;;;;;5005242;28;20030;-60
2021/03/13 06:26:24;;;;;;;14.07;10.00;;;7.40;99.90;;;;;;5012328;28;20026;-58
2021/03/13 06:28:51;;;;;;;3.97;2.70;;;7.40;99.90;;;;;;5011276;28;20026;-59
2021/03/13 06:31:27;;;;;;;4.95;0.70;;;7.50;99.90;;;;;;5003090;28;20564;-58
2021/03/13 06:33:56;;;;;;;4.38;0.98;;;7.50;99.90;;;;;;4992999;28;20725;-59
2021/03/13 06:36:25;;;;;;;5.68;0.80;;;7.50;99.90;;;;;;4985968;28;20065;-59
2021/03/13 06:38:51;;;;;;;3.55;0.90;;;7.50;99.90;;;;;;5012394;28;20494;-61
2021/03/13 06:41:22;;;;;;;1.05;0.43;;;7.50;99.90;;;;;;5016424;28;20030;-60
2021/03/13 06:43:50;;;;;;;1.13;0.70;;;7.50;99.90;;;;;;5003248;28;20034;-59
2021/03/13 06:46:18;;;;;;;1.30;0.60;;;7.50;99.90;;;;;;4985055;28;20430;-60
2021/03/13 06:48:54;;;;;;;7.38;0.80;;;7.60;99.90;;;;;;4995449;28;20112;-57
2021/03/13 06:51:24;;;;;;;3.05;0.90;;;7.50;99.90;;;;;;4995381;28;20050;-59
2021/03/13 06:54:13;;;;;;;1.85;0.50;;;7.50;99.90;;;;;;4989013;28;20062;-58
2021/03/13 06:56:44;;;;;;;2.70;0.60;;;7.50;99.90;;;;;;5022724;28;20037;-60
2021/03/13 06:59:34;;;;;;;3.65;0.85;;;7.50;99.90;;;;;;5011661;28;20173;-61
2021/03/13 07:02:04;;;;;;;1.23;0.80;;;7.60;99.90;;;;;;4992933;28;20026;-59
2021/03/13 07:04:39;;;;;;;4.07;0.70;;;7.60;99.90;;;;;;4992090;28;20089;-59
2021/03/13 07:07:06;;;;;;;5.93;2.45;;;7.60;99.90;;;;;;5002106;28;20026;-59
2021/03/13 07:09:48;;;;;;;5.70;3.05;;;7.70;99.90;;;;;;5004038;28;20034;-61
2021/03/13 07:12:24;;;;;;;1.98;0.50;;;7.60;99.90;;;;;;5002121;28;20440;-60
2021/03/13 07:14:51;;;;;;;0.45;0.32;;;7.70;99.90;;;;;;4980937;28;20166;-59
2021/03/13 07:17:17;;;;;;;3.22;0.85;;;7.70;99.90;;;;;;4981226;28;20443;-61
2021/03/13 07:19:43;;;;;;;2.20;0.60;;;7.80;99.90;;;;;;4995970;28;20030;-60
2021/03/13 07:22:13;;;;;;;1.75;0.50;;;7.80;99.90;;;;;;4996880;28;20491;-59
2021/03/13 07:24:43;;;;;;;2.38;0.68;;;7.80;99.90;;;;;;5006067;28;20034;-61
2021/03/13 07:27:12;;;;;;;1.30;0.30;;;7.70;99.90;;;;;;5010493;28;20113;-61
2021/03/13 07:29:40;;;;;;;4.13;0.68;;;7.70;99.90;;;;;;5021078;28;20029;-60
2021/03/13 07:32:08;;;;;;;3.08;0.95;;;7.80;99.90;;;;;;4994489;28;20436;-60
2021/03/13 07:34:37;;;;;;;1.55;0.52;;;7.80;99.90;;;;;;5003175;28;20631;-59
2021/03/13 07:37:04;;;;;;;1.25;0.30;;;7.90;99.90;;;;;;4995073;28;20026;-61
2021/03/13 07:39:37;;;;;;;5.03;1.35;;;7.90;99.90;;;;;;5016422;28;20037;-61
2021/03/13 07:42:05;;;;;;;1.85;0.65;;;7.90;99.90;;;;;;5007509;28;20052;-61
2021/03/13 07:44:31;;;;;;;2.15;0.70;;;8.00;99.90;;;;;;5005113;28;20079;-59
2021/03/13 07:46:58;;;;;;;3.55;1.27;;;8.00;99.90;;;;;;4994353;28;20026;-60
2021/03/13 07:49:24;;;;;;;6.53;3.08;;;8.00;99.90;;;;;;4997614;28;20028;-60
2021/03/13 07:51:50;;;;;;;3.75;1.80;;;8.00;99.90;;;;;;4997617;28;20061;-61
2021/03/13 07:54:17;;;;;;;1.70;1.00;;;8.00;99.90;;;;;;4995912;28;20061;-61
2021/03/13 07:56:43;;;;;;;14.57;6.35;;;8.00;99.90;;;;;;5018971;28;20068;-60
2021/03/13 07:59:32;;;;;;;5.95;3.15;;;8.00;99.90;;;;;;5009371;28;20033;-60
2021/03/13 08:01:58;;;;;;;10.82;4.18;;;8.00;99.90;;;;;;4999320;28;20022;-58
2021/03/13 08:04:42;;;;;;;6.28;2.08;;;8.00;99.90;;;;;;4998689;28;20563;-58
2021/03/13 08:07:07;;;;;;;4.03;1.75;;;8.00;99.90;;;;;;5010653;28;20018;-60
2021/03/13 08:09:42;;;;;;;5.43;1.90;;;8.00;99.90;;;;;;5025058;28;20040;-61
2021/03/13 08:12:08;;;;;;;2.50;0.77;;;7.90;99.90;;;;;;5012956;28;20021;-62
2021/03/13 08:14:34;;;;;;;1.98;1.33;;;7.80;99.90;;;;;;5015622;28;20084;-62
2021/03/13 08:17:08;;;;;;;2.30;1.10;;;7.70;99.90;;;;;;5007728;28;20068;-61
2021/03/13 08:19:36;;;;;;;1.55;0.75;;;7.50;99.90;;;;;;5019510;28;20033;-59
2021/03/13 08:22:13;;;;;;;2.95;0.63;;;6.60;99.90;;;;;;5010805;28;20038;-61
2021/03/13 08:24:41;;;;;;;2.92;0.98;;;6.30;99.90;;;;;;5008934;28;20044;-60
2021/03/13 08:27:08;;;;;;;7.07;3.47;;;6.10;99.90;;;;;;5012317;28;20057;-62
2021/03/13 08:30:15;;;;;;;4.90;2.47;;;6.00;99.90;;;;;;5007330;28;20023;-59
2021/03/13 08:33:06;;;;;;;8.88;4.55;;;5.90;99.90;;;;;;5008255;28;20110;-61
2021/03/13 08:35:39;;;;;;;10.40;4.65;;;5.90;99.90;;;;;;5022899;28;20030;-60
2021/03/13 08:38:06;;;;;;;15.73;7.00;;;5.90;99.90;;;;;;4999126;28;20030;-60
2021/03/13 08:40:32;;;;;;;7.28;2.53;;;5.90;99.90;;;;;;5015391;28;20030;-62
2021/03/13 08:42:57;;;;;;;2.30;1.50;;;5.90;99.90;;;;;;5018642;28;20026;-59
2021/03/13 08:45:32;;;;;;;6.32;1.73;;;5.90;99.90;;;;;;5023562;28;20079;-62
2021/03/13 08:47:57;;;;;;;6.82;2.40;;;5.90;99.90;;;;;;5011053;28;20033;-61
2021/03/13 08:50:51;;;;;;;5.68;1.15;;;5.90;99.90;;;;;;5019586;28;20108;-58
2021/03/13 08:53:32;;;;;;;4.07;1.10;;;6.00;99.90;;;;;;5006467;28;20037;-61
2021/03/13 08:55:58;;;;;;;2.13;1.10;;;6.10;99.90;;;;;;4994414;28;20125;-60
2021/03/13 08:58:43;;;;;;;3.15;1.67;;;6.10;99.90;;;;;;4999485;28;20153;-61
2021/03/13 09:01:15;;;;;;;2.85;1.25;;;6.10;99.90;;;;;;4995163;28;20256;-61
2021/03/13 09:03:50;;;;;;;14.60;7.07;;;6.20;99.90;;;;;;4989382;28;20030;-61
2021/03/13 09:06:21;;;;;;;6.57;3.08;;;6.20;99.90;;;;;;4989778;28;20085;-62
2021/03/13 09:08:48;;;;;;;23.58;10.73;;;6.30;99.90;;;;;;4993390;28;20395;-61
2021/03/13 09:11:24;;;;;;;5.47;2.95;;;6.40;99.90;;;;;;4999228;28;20487;-59
2021/03/13 09:13:58;;;;;;;17.23;7.47;;;6.40;99.90;;;;;;4987479;28;20041;-62
2021/03/13 09:16:24;;;;;;;18.00;8.82;;;6.50;99.90;;;;;;4994345;28;20037;-60
2021/03/13 09:18:54;;;;;;;25.40;10.70;;;6.50;99.90;;;;;;4989976;28;20035;-61
2021/03/13 09:21:40;;;;;;;38.85;16.40;;;6.60;99.90;;;;;;4985527;28;20034;-61
2021/03/13 09:24:07;;;;;;;25.45;11.20;;;6.60;99.90;;;;;;4987200;28;20506;-60
2021/03/13 09:26:34;;;;;;;22.85;9.45;;;6.70;99.90;;;;;;4989126;28;20054;-61
2021/03/13 09:28:59;;;;;;;24.42;9.95;;;6.70;99.90;;;;;;4993086;28;20079;-62
2021/03/13 09:31:25;;;;;;;15.13;6.93;;;6.70;99.90;;;;;;4992788;28;20488;-61
2021/03/13 09:33:50;;;;;;;9.55;3.85;;;6.70;99.90;;;;;;4988943;28;20117;-62
2021/03/13 09:36:16;;;;;;;11.48;4.00;;;6.70;99.90;;;;;;4990510;28;20031;-60
2021/03/13 09:38:58;;;;;;;6.85;2.50;;;6.80;99.90;;;;;;4996084;28;20029;-60
2021/03/13 09:41:23;;;;;;;13.57;2.92;;;6.80;99.90;;;;;;4982084;28;20037;-61
2021/03/13 09:43:49;;;;;;;8.75;4.05;;;6.80;99.90;;;;;;4990716;28;20030;-62
2021/03/13 09:46:16;;;;;;;9.85;2.58;;;6.70;99.90;;;;;;4985868;28;20113;-60
2021/03/13 09:48:42;;;;;;;10.35;4.57;;;6.80;99.90;;;;;;4984593;28;20033;-61
2021/03/13 09:51:08;;;;;;;10.48;2.63;;;6.70;99.90;;;;;;4991972;28;20030;-62
2021/03/13 09:53:33;;;;;;;8.68;2.63;;;6.70;99.90;;;;;;4984105;28;20523;-61
2021/03/13 09:55:59;;;;;;;6.10;1.10;;;6.70;99.90;;;;;;4979180;28;20101;-61
2021/03/13 09:58:24;;;;;;;7.38;1.40;;;6.70;99.90;;;;;;4997865;28;20050;-61
2021/03/13 10:00:50;;;;;;;9.38;2.70;;;6.70;99.90;;;;;;5001737;28;20487;-61
2021/03/13 10:03:17;;;;;;;9.23;1.90;;;6.70;99.90;;;;;;4990888;28;20061;-61
2021/03/13 10:05:43;;;;;;;10.40;2.70;;;6.70;99.90;;;;;;4995872;28;20026;-64
2021/03/13 10:08:17;;;;;;;9.55;1.90;;;6.80;99.90;;;;;;4993740;28;20377;-60
2021/03/13 10:10:47;;;;;;;7.18;1.50;;;6.80;99.90;;;;;;5003555;28;20026;-59
2021/03/13 10:13:15;;;;;;;6.05;1.45;;;6.80;99.90;;;;;;4994449;28;20041;-62
2021/03/13 10:15:42;;;;;;;8.57;1.73;;;6.90;99.90;;;;;;5005308;28;20113;-61
2021/03/13 10:18:15;;;;;;;9.25;2.25;;;6.90;99.90;;;;;;4989018;28;20033;-62
2021/03/13 10:20:45;;;;;;;8.13;1.90;;;6.90;99.90;;;;;;4998131;28;20022;-60
2021/03/13 10:23:12;;;;;;;4.25;1.30;;;6.90;99.90;;;;;;4998337;28;20026;-61
2021/03/13 10:25:52;;;;;;;7.70;1.98;;;6.80;99.90;;;;;;4999127;28;20022;-61
2021/03/13 10:28:18;;;;;;;5.07;1.92;;;6.90;99.90;;;;;;4998010;28;20495;-61
2021/03/13 10:30:45;;;;;;;6.28;1.58;;;6.90;99.90;;;;;;4994899;28;20056;-62
2021/03/13 10:33:12;;;;;;;6.05;1.70;;;7.00;99.90;;;;;;5005205;28;20033;-61
2021/03/13 10:35:38;;;;;;;10.55;2.03;;;7.00;99.90;;;;;;4990328;28;20034;-61
2021/03/13 10:38:15;;;;;;;8.07;1.52;;;7.20;99.90;;;;;;4981756;28;20038;-61
2021/03/13 10:40:47;;;;;;;21.10;7.45;;;7.30;99.90;;;;;;4995085;28;20057;-61
2021/03/13 10:43:15;;;;;;;9.48;2.63;;;7.60;99.90;;;;;;4999428;28;20121;-62
2021/03/13 10:45:43;;;;;;;11.77;2.65;;;7.70;99.90;;;;;;5001329;28;20026;-62
2021/03/13 10:48:10;;;;;;;14.43;5.25;;;7.80;99.90;;;;;;4983397;28;20043;-62
2021/03/13 10:50:42;;;;;;;10.93;5.05;;;7.90;99.90;;;;;;4994092;28;20034;-61
2021/03/13 10:53:39;;;;;;;12.57;1.83;;;8.20;99.90;;;;;;4988726;28;20072;-62
2021/03/13 10:56:06;;;;;;;6.97;2.08;;;8.50;99.90;;;;;;4982878;28;20054;-59
2021/03/13 10:58:37;;;;;;;8.18;1.80;;;8.70;99.90;;;;;;4997362;28;20022;-62
2021/03/13 11:01:04;;;;;;;21.35;7.38;;;8.50;99.90;;;;;;4989644;28;20045;-60
2021/03/13 11:03:30;;;;;;;7.25;3.75;;;8.40;99.90;;;;;;4987356;28;20030;-63
2021/03/13 11:05:56;;;;;;;9.40;3.33;;;8.30;99.90;;;;;;4986800;28;20399;-62
2021/03/13 11:08:23;;;;;;;9.63;3.88;;;8.20;99.90;;;;;;4988619;28;20030;-61
2021/03/13 11:10:50;;;;;;;13.25;2.97;;;8.40;99.90;;;;;;5000272;28;20034;-62
2021/03/13 11:13:17;;;;;;;30.85;13.43;;;8.50;99.90;;;;;;4994627;28;20038;-61
2021/03/13 11:15:44;;;;;;;54.58;20.73;;;8.70;99.90;;;;;;4972509;28;20122;-61
2021/03/13 11:18:09;;;;;;;18.20;6.57;;;8.70;99.90;;;;;;4979938;28;20544;-62
2021/03/13 11:20:36;;;;;;;14.38;5.28;;;8.60;99.90;;;;;;4980302;28;20038;-62
2021/03/13 11:23:02;;;;;;;7.70;2.20;;;8.60;99.90;;;;;;4980542;28;20105;-61
2021/03/13 11:25:28;;;;;;;10.02;2.00;;;8.50;99.90;;;;;;4988932;28;20059;-64
2021/03/13 11:27:54;;;;;;;13.80;5.50;;;8.40;99.90;;;;;;4996988;28;20030;-63
2021/03/13 11:30:21;;;;;;;9.75;2.42;;;8.50;99.90;;;;;;4985972;28;20030;-62
2021/03/13 11:32:47;;;;;;;12.15;2.20;;;8.40;99.90;;;;;;4974820;28;20018;-62
2021/03/13 11:35:13;;;;;;;13.57;3.08;;;8.30;99.90;;;;;;4969728;28;20034;-61
2021/03/13 11:37:40;;;;;;;34.47;10.25;;;8.30;99.90;;;;;;4981028;28;20079;-62
2021/03/13 11:40:09;;;;;;;20.98;6.40;;;8.40;99.90;;;;;;4999535;28;20030;-60
2021/03/13 11:42:35;;;;;;;13.30;3.28;;;8.50;99.90;;;;;;5000490;28;20499;-61
2021/03/13 11:45:02;;;;;;;10.10;2.83;;;8.60;99.90;;;;;;5015570;28;20041;-62
2021/03/13 11:47:28;;;;;;;9.55;3.05;;;8.60;99.90;;;;;;4980274;28;20125;-60
2021/03/13 11:49:54;;;;;;;28.00;8.35;;;8.50;99.90;;;;;;4991231;28;20141;-60
2021/03/13 11:52:23;;;;;;;26.92;8.82;;;8.40;99.90;;;;;;4995026;28;20030;-61
2021/03/13 11:54:50;;;;;;;11.20;2.95;;;8.60;99.90;;;;;;4974534;28;20099;-61
2021/03/13 11:57:16;;;;;;;6.35;2.00;;;8.50;99.90;;;;;;4997427;28;20078;-62
2021/03/13 11:59:47;;;;;;;17.23;5.97;;;8.50;99.90;;;;;;4995351;28;20531;-62
2021/03/13 12:02:13;;;;;;;14.52;2.90;;;8.60;99.90;;;;;;4978966;28;20030;-61
2021/03/13 12:04:39;;;;;;;11.70;3.70;;;8.80;99.90;;;;;;4982619;28;20038;-63
2021/03/13 12:07:05;;;;;;;15.85;2.72;;;8.90;99.90;;;;;;4987650;28;20078;-62
2021/03/13 12:09:30;;;;;;;10.90;3.28;;;8.80;99.90;;;;;;5004229;28;20037;-62
2021/03/13 12:11:56;;;;;;;16.65;2.60;;;8.80;99.90;;;;;;4996087;28;20038;-60
2021/03/13 12:14:22;;;;;;;12.02;2.08;;;8.80;99.90;;;;;;4996059;28;20034;-60
2021/03/13 12:16:47;;;;;;;7.95;1.98;;;8.70;99.90;;;;;;4979559;28;20034;-61
2021/03/13 12:19:13;;;;;;;14.30;2.75;;;8.70;99.90;;;;;;4979423;28;20594;-62
2021/03/13 12:21:39;;;;;;;11.18;2.53;;;8.80;99.90;;;;;;4991061;28;20035;-61
2021/03/13 12:24:07;;;;;;;10.48;2.20;;;8.90;99.90;;;;;;4991782;28;20121;-61
2021/03/13 12:26:33;;;;;;;10.45;2.55;;;8.70;99.90;;;;;;4992868;28;20061;-62
2021/03/13 12:28:59;;;;;;;14.68;2.60;;;8.70;99.90;;;;;;5007148;28;20158;-62
2021/03/13 12:31:24;;;;;;;13.68;2.08;;;8.80;99.90;;;;;;4984923;28;20146;-62
2021/03/13 12:33:50;;;;;;;15.38;3.33;;;8.90;99.90;;;;;;4998979;28;20474;-62
2021/03/13 12:36:16;;;;;;;12.10;3.15;;;9.10;99.90;;;;;;5014481;28;20034;-62
2021/03/13 12:38:41;;;;;;;12.98;2.30;;;9.10;99.90;;;;;;5002126;28;20034;-61
2021/03/13 12:41:07;;;;;;;10.25;2.67;;;9.00;99.90;;;;;;5003617;28;20038;-61
2021/03/13 12:43:34;;;;;;;11.48;2.83;;;9.00;99.90;;;;;;5013664;28;20034;-59
2021/03/13 12:46:00;;;;;;;15.68;2.67;;;9.10;99.90;;;;;;5010188;28;20096;-59
2021/03/13 12:48:26;;;;;;;11.82;1.85;;;9.40;99.90;;;;;;4995985;28;20041;-62
2021/03/13 12:50:52;;;;;;;9.38;2.13;;;9.60;99.90;;;;;;4995385;28;20026;-61
2021/03/13 12:53:18;;;;;;;12.05;3.13;;;9.90;99.90;;;;;;4993615;28;20080;-61
2021/03/13 12:55:43;;;;;;;12.30;3.00;;;9.80;98.90;;;;;;4996468;28;20046;-62
2021/03/13 12:58:09;;;;;;;11.70;3.05;;;10.00;99.70;;;;;;5011047;28;20069;-61